Погода Амекана неделю

Халиско, Мексика

25 февраля-02 марта
  • 25февраля
    Сегодня
    +11°
    +33°
    Ясно и безоблачно
    ВремяПогодаТемператураВлажностьДавлениеВетер, м/сВероятность осадков
    00:00Ясно и безоблачно+15°C74 %661 мм1.1 м/с2 %
    03:00Небольшая облачность+13°C86 %660 мм0.8 м/с2 %
    06:00Ясно и безоблачно+13°C76 %660 мм0.2 м/с2 %
    09:00Ясно и безоблачно+16°C65 %663 мм0.6 м/с2 %
    12:00Ясно и безоблачно+27°C28 %665 мм0.7 м/с2 %
    15:00Ясно и безоблачно+32°C17 %663 мм0.6 м/с2 %
    18:00Ясно и безоблачно+29°C27 %662 мм2.1 м/с2 %
    21:00Ясно и безоблачно+20°C56 %662 мм2.7 м/с2 %
  • 26февраля
    Понедельник
    +12°
    +33°
    Ясно и безоблачно
    ВремяПогодаТемператураВлажностьДавлениеВетер, м/сВероятность осадков
    00:00Ясно и безоблачно+16°C73 %662 мм1.7 м/с2 %
    03:00Ясно и безоблачно+14°C80 %661 мм1.5 м/с2 %
    06:00Ясно и безоблачно+12°C75 %660 мм1.0 м/с2 %
    09:00Ясно и безоблачно+17°C54 %663 мм0.2 м/с2 %
    12:00Ясно и безоблачно+27°C28 %665 мм0.6 м/с2 %
    15:00Ясно и безоблачно+32°C17 %662 мм0.8 м/с2 %
    18:00Небольшая облачность+30°C27 %661 мм2.9 м/с2 %
    21:00Ясно и безоблачно+20°C67 %661 мм2.4 м/с2 %
  • 27февраля
    Вторник
    +11°
    +32°
    Небольшая облачность
    ВремяПогодаТемператураВлажностьДавлениеВетер, м/сВероятность осадков
    00:00Ясно и безоблачно+16°C80 %661 мм1.8 м/с2 %
    03:00Ясно и безоблачно+14°C75 %659 мм1.6 м/с2 %
    06:00Ясно и безоблачно+13°C69 %659 мм1.4 м/с2 %
    09:00Практически безоблачно+17°C55 %662 мм0.1 м/с2 %
    12:00Облачно с прояснениями+28°C28 %663 мм0.7 м/с2 %
    15:00Небольшая облачность+32°C18 %661 мм2.7 м/с2 %
    18:00Ясно и безоблачно+29°C23 %660 мм3.4 м/с2 %
    21:00Ясно и безоблачно+20°C51 %660 мм2.6 м/с2 %
  • 28февраля
    Среда
    +10°
    +32°
    Небольшая облачность
    ВремяПогодаТемператураВлажностьДавлениеВетер, м/сВероятность осадков
    00:00Практически безоблачно+16°C59 %660 мм2.1 м/с2 %
    03:00Практически безоблачно+14°C60 %659 мм1.7 м/с2 %
    06:00Небольшая облачность+12°C58 %658 мм1.2 м/с2 %
    09:00Практически безоблачно+16°C43 %661 мм0.7 м/с2 %
    12:00Небольшая облачность+27°C19 %663 мм0.6 м/с2 %
    15:00Небольшая облачность+32°C10 %661 мм2.1 м/с2 %
    18:00Ясно и безоблачно+29°C16 %660 мм2.5 м/с2 %
    21:00Небольшая облачность+19°C36 %660 мм2.4 м/с2 %
  • 29февраля
    Четверг
    +10°
    +33°
    Ясно и безоблачно
    ВремяПогодаТемператураВлажностьДавлениеВетер, м/сВероятность осадков
    00:00Практически безоблачно+16°C46 %660 мм1.7 м/с2 %
    03:00Практически безоблачно+12°C49 %658 мм0.9 м/с2 %
    06:00Ясно и безоблачно+11°C52 %658 мм0.1 м/с2 %
    09:00Ясно и безоблачно+17°C37 %662 мм0.3 м/с2 %
    12:00Практически безоблачно+27°C17 %664 мм0.5 м/с2 %
    15:00Ясно и безоблачно+32°C11 %662 мм2.3 м/с2 %
    18:00Облачно с прояснениями+27°C15 %661 мм4.0 м/с2 %
    21:00Облачно с прояснениями+18°C44 %661 мм2.0 м/с2 %
Мы используем cookies
Соглашаюсь